Lord Nelson — GHJV — position and weather

sailwx.info

Track history (hours):
 
Tides and Currents Weather Stations Pressure Air Temp Water Temp Dewpoint Dewpoint Depression Visibility Wind Speed Wind Dir Waves Ship Positions

Lord Nelson (United Kingdom)

Ship's website: http://www.jst.org.uk/

Last reported at 2017-May-25 22:53 UTC. Time now 2017-May-26 00:02 UTC.
Position N 49°48' W 002°07'.

Length 54.7 m; beam 9 m; draft 4.1 m.

Type: Sailing vessel. MMSI: 232003690.

Date/timePositionNaut miles runAvg speedWind from/ knotsBaromVisibWave heightAir tempDewpointWater temp
2017-May-25 22:53N 49°48' W 002°07'7 5.3
2017-May-25 21:36N 49°42' W 002°04'18 7.4
2017-May-25 19:12N 49°24' W 002°11'2 7.0
2017-May-25 18:58N 49°23' W 002°13'2 4.8
2017-May-25 18:30N 49°21' W 002°14'6 5.8
2017-May-25 17:30N 49°16' W 002°19'5 6.3
2017-May-25 16:38N 49°11' W 002°16'1 3.3
2017-May-25 16:28N 49°10' W 002°16'2 0.1
2017-May-24 23:39N 49°10' W 002°13'0 0.0
2017-May-24 23:24N 49°10' W 002°13'0 0.0
2017-May-24 22:48N 49°10' W 002°13'0 0.0
2017-May-24 22:30N 49°10' W 002°13'0 0.0
2017-May-24 22:00N 49°10' W 002°13'0 0.0
2017-May-24 21:21N 49°10' W 002°13'0 0.0
2017-May-24 21:00N 49°10' W 002°13'0 0.0
2017-May-24 20:27N 49°10' W 002°13'0 0.0
2017-May-24 19:12N 49°10' W 002°13'0 0.0
2017-May-24 18:18N 49°10' W 002°13'1 0.5
2017-May-24 17:09N 49°10' W 002°12'3 7.1
2017-May-24 16:48N 49°10' W 002°08'1 0.2
2017-May-24 11:54N 49°11' W 002°07'13 0.3
2017-May-22 12:28N 49°07' W 002°26'12 0.7
2017-May-21 20:00N 49°16' W 002°15'36 6.7
2017-May-21 14:40N 49°23' W 003°08'2 7.5
2017-May-21 14:27N 49°24' W 003°11'7 7.3
2017-May-21 13:30N 49°25' W 003°21'3 7.0
2017-May-21 13:00N 49°26' W 003°26'11 7.1
2017-May-21 11:23N 49°29' W 003°43'16 6.4
2017-May-21 08:56N 49°35' W 004°05'8 4.9
2017-May-21 07:18N 49°36' W 004°18'5 3.5
2017-May-21 05:47N 49°32' W 004°24'5 3.9
2017-May-21 04:27N 49°29' W 004°30'76 4.1
2017-May-20 09:55N 50°28' W 005°45'4 5.6
2017-May-20 09:15N 50°31' W 005°40'2 5.8
2017-May-20 08:52N 50°32' W 005°38'2 6.1
2017-May-20 08:30N 50°33' W 005°35'3 6.2
2017-May-20 08:00N 50°35' W 005°31'3 6.3
2017-May-20 07:30N 50°37' W 005°27'3 6.7
2017-May-20 07:00N 50°40' W 005°23'3 7.0
2017-May-20 06:30N 50°42' W 005°20'3 6.9
2017-May-20 06:00N 50°44' W 005°15'4 7.2
2017-May-20 05:30N 50°47' W 005°11'4 7.2
2017-May-20 05:00N 50°49' W 005°07'4 7.2
2017-May-20 04:30N 50°51' W 005°02'4 7.1
2017-May-20 04:00N 50°54' W 004°58'4 7.4
2017-May-20 03:30N 50°56' W 004°54'4 7.3
2017-May-20 03:00N 50°58' W 004°49'4 7.4
2017-May-20 02:30N 51°01' W 004°44'4 7.5
2017-May-20 02:00N 51°03' W 004°40'4 7.2
2017-May-20 01:30N 51°05' W 004°35'4 7.4
2017-May-20 01:00N 51°08' W 004°31'4 7.1
2017-May-20 00:30N 51°10' W 004°27'4 7.1
2017-May-19 23:59N 51°13' W 004°23'3 6.8
2017-May-19 23:30N 51°15' W 004°19'3 6.1
2017-May-19 23:00N 51°16' W 004°14'7 6.1
2017-May-19 21:52N 51°17' W 004°03'3 6.0
2017-May-19 21:24N 51°18' W 003°59'3 5.8
2017-May-19 20:48N 51°19' W 003°54'2 5.9
2017-May-19 20:27N 51°19' W 003°50'6 5.8
2017-May-19 19:20N 51°20' W 003°40'22 6.3
2017-May-19 15:52N 51°25' W 003°05'3 8.8
2017-May-19 15:30N 51°26' W 003°01'5 9.7
2017-May-19 15:00N 51°28' W 002°54'8 8.0
2017-May-19 14:00N 51°29' W 002°41'2 3.4
2017-May-19 13:30N 51°28' W 002°39'1 2.7
2017-May-19 13:00N 51°27' W 002°38'0 0.2
2017-May-19 12:17N 51°27' W 002°37'0 0.4
2017-May-19 12:00N 51°27' W 002°37'1 1.0
2017-May-19 11:26N 51°27' W 002°36'0 0.7
2017-May-19 11:00N 51°27' W 002°36'0 0.0
2017-May-19 10:30N 51°27' W 002°36'0 0.0
2017-May-19 09:30N 51°27' W 002°36'0 0.0
2017-May-19 09:00N 51°27' W 002°36'0 0.0
2017-May-19 08:30N 51°27' W 002°36'0 0.0
2017-May-19 08:00N 51°27' W 002°36'0 0.0
2017-May-19 07:30N 51°27' W 002°36'0 0.0
2017-May-19 07:00N 51°27' W 002°36'0 0.0
2017-May-19 06:30N 51°27' W 002°36'0 0.0
2017-May-19 06:00N 51°27' W 002°36'0 0.0
2017-May-19 05:24N 51°27' W 002°36'0 0.0
2017-May-19 05:00N 51°27' W 002°36'0 0.0
2017-May-19 04:30N 51°27' W 002°36'0 0.0
2017-May-19 04:00N 51°27' W 002°36'0 0.0
2017-May-19 03:30N 51°27' W 002°36'0 0.0
2017-May-19 02:54N 51°27' W 002°36'0 0.0
2017-May-19 02:30N 51°27' W 002°36'0 0.0
2017-May-19 02:00N 51°27' W 002°36'0 0.0
2017-May-19 01:30N 51°27' W 002°36'0 0.0
2017-May-19 01:00N 51°27' W 002°36'0 0.0
2017-May-19 00:27N 51°27' W 002°36'0 0.0
2017-May-19 00:00N 51°27' W 002°36'0 0.0
2017-May-18 23:30N 51°27' W 002°36'0 0.0
2017-May-18 22:54N 51°27' W 002°36'0 0.0
2017-May-18 22:30N 51°27' W 002°36'0 0.0
2017-May-18 22:00N 51°27' W 002°36'0 0.0
2017-May-18 21:24N 51°27' W 002°36'0 0.0
2017-May-18 21:00N 51°27' W 002°36'0 0.0
2017-May-18 20:27N 51°27' W 002°36'0 0.0
2017-May-18 18:54N 51°27' W 002°36'0 0.0
2017-May-18 18:30N 51°27' W 002°36'0 0.0
2017-May-18 18:00N 51°27' W 002°36'0 0.0
2017-May-18 17:30N 51°27' W 002°36'0 0.0
2017-May-18 16:54N 51°27' W 002°36'0 0.0
2017-May-18 16:27N 51°27' W 002°36'0 0.0
2017-May-18 15:48N 51°27' W 002°36'0 0.0
2017-May-18 15:30N 51°27' W 002°36'0 0.0
2017-May-18 15:00N 51°27' W 002°36'0 0.0
2017-May-18 14:30N 51°27' W 002°36'0 0.0
2017-May-18 12:51N 51°27' W 002°36'0 0.0
2017-May-18 12:30N 51°27' W 002°36'0 0.0
2017-May-18 12:00N 51°27' W 002°36'0 0.0
2017-May-18 11:30N 51°27' W 002°36'0 0.0
2017-May-18 11:00N 51°27' W 002°36'0 0.0
2017-May-18 10:30N 51°27' W 002°36'0 0.0
2017-May-18 10:00N 51°27' W 002°36'0 0.0
2017-May-18 09:29N 51°27' W 002°36'0 0.0
2017-May-18 08:59N 51°27' W 002°36'0 0.0
2017-May-18 08:23N 51°27' W 002°36'0 0.0
2017-May-18 07:59N 51°27' W 002°36'0 0.0
2017-May-18 07:29N 51°27' W 002°36'0 0.0
2017-May-18 06:59N 51°27' W 002°36'0 0.0
2017-May-18 06:29N 51°27' W 002°36'0 0.0
2017-May-18 05:59N 51°27' W 002°36'0 0.0
2017-May-18 05:29N 51°27' W 002°36'0 0.0
2017-May-18 04:59N 51°27' W 002°36'0 0.0
2017-May-18 04:29N 51°27' W 002°36'0 0.0
2017-May-18 03:59N 51°27' W 002°36'0 0.0
2017-May-18 03:29N 51°27' W 002°36'0 0.0
2017-May-18 02:59N 51°27' W 002°36'0 0.0
2017-May-18 02:29N 51°27' W 002°36'0 0.0
2017-May-18 01:59N 51°27' W 002°36'0 0.0
2017-May-18 01:29N 51°27' W 002°36'0 0.0
2017-May-18 00:59N 51°27' W 002°36'0 0.0
2017-May-18 00:23N 51°27' W 002°36'0 0.0
2017-May-17 23:59N 51°27' W 002°36'0 0.0
2017-May-17 23:29N 51°27' W 002°36'0 0.0
2017-May-17 22:59N 51°27' W 002°36'0 0.0
2017-May-17 22:29N 51°27' W 002°36'0 0.0
2017-May-17 21:59N 51°27' W 002°36'0 0.0
2017-May-17 21:29N 51°27' W 002°36'0 0.0
2017-May-17 20:53N 51°27' W 002°36'0 0.0
2017-May-17 20:26N 51°27' W 002°36'0 0.0
2017-May-17 19:59N 51°27' W 002°36'0 0.0
2017-May-17 19:26N 51°27' W 002°36'0 0.0
2017-May-17 18:56N 51°27' W 002°36'0 0.0
2017-May-17 18:23N 51°27' W 002°36'0 0.0
2017-May-17 17:59N 51°27' W 002°36'0 0.0
2017-May-17 17:29N 51°27' W 002°36'0 0.0
2017-May-17 16:56N 51°27' W 002°36'0 0.0
2017-May-17 16:29N 51°27' W 002°36'0 0.0
2017-May-17 15:50N 51°27' W 002°36'0 0.0
2017-May-17 15:26N 51°27' W 002°36'0 0.0
2017-May-17 14:56N 51°27' W 002°36'0 0.0
2017-May-17 13:53N 51°27' W 002°36'0 0.0
2017-May-17 13:29N 51°27' W 002°36'0 0.0
2017-May-17 12:59N 51°27' W 002°36'0 0.0
2017-May-17 12:29N 51°27' W 002°36'0 0.0
2017-May-17 11:59N 51°27' W 002°36'0 0.0
2017-May-17 11:29N 51°27' W 002°36'0 0.0
2017-May-17 10:50N 51°27' W 002°36'0 0.1
2017-May-17 10:27N 51°27' W 002°36'1 1.9
2017-May-17 10:00N 51°27' W 002°37'0 0.2
2017-May-17 09:14N 51°27' W 002°37'0 1.9
2017-May-17 09:00N 51°27' W 002°38'2 4.6
2017-May-17 08:31N 51°29' W 002°40'2 4.6
2017-May-17 08:00N 51°30' W 002°43'4 7.0
2017-May-17 07:30N 51°29' W 002°48'5 9.7
2017-May-17 06:58N 51°27' W 002°56'4 9.6
2017-May-17 06:30N 51°25' W 003°03'23 6.4
2017-May-17 02:59N 51°20' W 003°38'6 4.3
2017-May-17 01:29N 51°21' W 003°48'2 3.2
2017-May-17 00:52N 51°21' W 003°51'2 0.8
2017-May-16 22:21N 51°19' W 003°51'5 0.6
2017-May-16 15:08N 51°23' W 003°46'0 3.4
2017-May-16 14:59N 51°23' W 003°46'  
Track history (hours):
 
Tides and Currents Weather Stations Pressure Air Temp Water Temp Dewpoint Dewpoint Depression Visibility Wind Speed Wind Dir Waves Ship Positions

Lord Nelson (United Kingdom)

Ship's website: http://www.jst.org.uk/

Last reported at 2017-May-25 22:53 UTC. Time now 2017-May-26 00:02 UTC.
Position N 49°48' W 002°07'.

Length 54.7 m; beam 9 m; draft 4.1 m.

Type: Sailing vessel. MMSI: 232003690.

Date/timePositionNaut miles runAvg speedWind from/ knotsBaromVisibWave heightAir tempDewpointWater temp
2017-May-25 22:53N 49°48' W 002°07'7 5.3
2017-May-25 21:36N 49°42' W 002°04'18 7.4
2017-May-25 19:12N 49°24' W 002°11'2 7.0
2017-May-25 18:58N 49°23' W 002°13'2 4.8
2017-May-25 18:30N 49°21' W 002°14'6 5.8
2017-May-25 17:30N 49°16' W 002°19'5 6.3
2017-May-25 16:38N 49°11' W 002°16'1 3.3
2017-May-25 16:28N 49°10' W 002°16'2 0.1
2017-May-24 23:39N 49°10' W 002°13'0 0.0
2017-May-24 23:24N 49°10' W 002°13'0 0.0
2017-May-24 22:48N 49°10' W 002°13'0 0.0
2017-May-24 22:30N 49°10' W 002°13'0 0.0
2017-May-24 22:00N 49°10' W 002°13'0 0.0
2017-May-24 21:21N 49°10' W 002°13'0 0.0
2017-May-24 21:00N 49°10' W 002°13'0 0.0
2017-May-24 20:27N 49°10' W 002°13'0 0.0
2017-May-24 19:12N 49°10' W 002°13'0 0.0
2017-May-24 18:18N 49°10' W 002°13'1 0.5
2017-May-24 17:09N 49°10' W 002°12'3 7.1
2017-May-24 16:48N 49°10' W 002°08'1 0.2
2017-May-24 11:54N 49°11' W 002°07'13 0.3
2017-May-22 12:28N 49°07' W 002°26'12 0.7
2017-May-21 20:00N 49°16' W 002°15'36 6.7
2017-May-21 14:40N 49°23' W 003°08'2 7.5
2017-May-21 14:27N 49°24' W 003°11'7 7.3
2017-May-21 13:30N 49°25' W 003°21'3 7.0
2017-May-21 13:00N 49°26' W 003°26'11 7.1
2017-May-21 11:23N 49°29' W 003°43'16 6.4
2017-May-21 08:56N 49°35' W 004°05'8 4.9
2017-May-21 07:18N 49°36' W 004°18'5 3.5
2017-May-21 05:47N 49°32' W 004°24'5 3.9
2017-May-21 04:27N 49°29' W 004°30'76 4.1
2017-May-20 09:55N 50°28' W 005°45'4 5.6
2017-May-20 09:15N 50°31' W 005°40'2 5.8
2017-May-20 08:52N 50°32' W 005°38'2 6.1
2017-May-20 08:30N 50°33' W 005°35'3 6.2
2017-May-20 08:00N 50°35' W 005°31'3 6.3
2017-May-20 07:30N 50°37' W 005°27'3 6.7
2017-May-20 07:00N 50°40' W 005°23'3 7.0
2017-May-20 06:30N 50°42' W 005°20'3 6.9
2017-May-20 06:00N 50°44' W 005°15'4 7.2
2017-May-20 05:30N 50°47' W 005°11'4 7.2
2017-May-20 05:00N 50°49' W 005°07'4 7.2
2017-May-20 04:30N 50°51' W 005°02'4 7.1
2017-May-20 04:00N 50°54' W 004°58'4 7.4
2017-May-20 03:30N 50°56' W 004°54'4 7.3
2017-May-20 03:00N 50°58' W 004°49'4 7.4
2017-May-20 02:30N 51°01' W 004°44'4 7.5
2017-May-20 02:00N 51°03' W 004°40'4 7.2
2017-May-20 01:30N 51°05' W 004°35'4 7.4
2017-May-20 01:00N 51°08' W 004°31'4 7.1
2017-May-20 00:30N 51°10' W 004°27'4 7.1
2017-May-19 23:59N 51°13' W 004°23'3 6.8
2017-May-19 23:30N 51°15' W 004°19'3 6.1
2017-May-19 23:00N 51°16' W 004°14'7 6.1
2017-May-19 21:52N 51°17' W 004°03'3 6.0
2017-May-19 21:24N 51°18' W 003°59'3 5.8
2017-May-19 20:48N 51°19' W 003°54'2 5.9
2017-May-19 20:27N 51°19' W 003°50'6 5.8
2017-May-19 19:20N 51°20' W 003°40'22 6.3
2017-May-19 15:52N 51°25' W 003°05'3 8.8
2017-May-19 15:30N 51°26' W 003°01'5 9.7
2017-May-19 15:00N 51°28' W 002°54'8 8.0
2017-May-19 14:00N 51°29' W 002°41'2 3.4
2017-May-19 13:30N 51°28' W 002°39'1 2.7
2017-May-19 13:00N 51°27' W 002°38'0 0.2
2017-May-19 12:17N 51°27' W 002°37'0 0.4
2017-May-19 12:00N 51°27' W 002°37'1 1.0
2017-May-19 11:26N 51°27' W 002°36'0 0.7
2017-May-19 11:00N 51°27' W 002°36'0 0.0
2017-May-19 10:30N 51°27' W 002°36'0 0.0
2017-May-19 09:30N 51°27' W 002°36'0 0.0
2017-May-19 09:00N 51°27' W 002°36'0 0.0
2017-May-19 08:30N 51°27' W 002°36'0 0.0
2017-May-19 08:00N 51°27' W 002°36'0 0.0
2017-May-19 07:30N 51°27' W 002°36'0 0.0
2017-May-19 07:00N 51°27' W 002°36'0 0.0
2017-May-19 06:30N 51°27' W 002°36'0 0.0
2017-May-19 06:00N 51°27' W 002°36'0 0.0
2017-May-19 05:24N 51°27' W 002°36'0 0.0
2017-May-19 05:00N 51°27' W 002°36'0 0.0
2017-May-19 04:30N 51°27' W 002°36'0 0.0
2017-May-19 04:00N 51°27' W 002°36'0 0.0
2017-May-19 03:30N 51°27' W 002°36'0 0.0
2017-May-19 02:54N 51°27' W 002°36'0 0.0
2017-May-19 02:30N 51°27' W 002°36'0 0.0
2017-May-19 02:00N 51°27' W 002°36'0 0.0
2017-May-19 01:30N 51°27' W 002°36'0 0.0
2017-May-19 01:00N 51°27' W 002°36'0 0.0
2017-May-19 00:27N 51°27' W 002°36'0 0.0
2017-May-19 00:00N 51°27' W 002°36'0 0.0
2017-May-18 23:30N 51°27' W 002°36'0 0.0
2017-May-18 22:54N 51°27' W 002°36'0 0.0
2017-May-18 22:30N 51°27' W 002°36'0 0.0
2017-May-18 22:00N 51°27' W 002°36'0 0.0
2017-May-18 21:24N 51°27' W 002°36'0 0.0
2017-May-18 21:00N 51°27' W 002°36'0 0.0
2017-May-18 20:27N 51°27' W 002°36'0 0.0
2017-May-18 18:54N 51°27' W 002°36'0 0.0
2017-May-18 18:30N 51°27' W 002°36'0 0.0
2017-May-18 18:00N 51°27' W 002°36'0 0.0
2017-May-18 17:30N 51°27' W 002°36'0 0.0
2017-May-18 16:54N 51°27' W 002°36'0 0.0
2017-May-18 16:27N 51°27' W 002°36'0 0.0
2017-May-18 15:48N 51°27' W 002°36'0 0.0
2017-May-18 15:30N 51°27' W 002°36'0 0.0
2017-May-18 15:00N 51°27' W 002°36'0 0.0
2017-May-18 14:30N 51°27' W 002°36'0 0.0
2017-May-18 12:51N 51°27' W 002°36'0 0.0
2017-May-18 12:30N 51°27' W 002°36'0 0.0
2017-May-18 12:00N 51°27' W 002°36'0 0.0
2017-May-18 11:30N 51°27' W 002°36'0 0.0
2017-May-18 11:00N 51°27' W 002°36'0 0.0
2017-May-18 10:30N 51°27' W 002°36'0 0.0
2017-May-18 10:00N 51°27' W 002°36'0 0.0
2017-May-18 09:29N 51°27' W 002°36'0 0.0
2017-May-18 08:59N 51°27' W 002°36'0 0.0
2017-May-18 08:23N 51°27' W 002°36'0 0.0
2017-May-18 07:59N 51°27' W 002°36'0 0.0
2017-May-18 07:29N 51°27' W 002°36'0 0.0
2017-May-18 06:59N 51°27' W 002°36'0 0.0
2017-May-18 06:29N 51°27' W 002°36'0 0.0
2017-May-18 05:59N 51°27' W 002°36'0 0.0
2017-May-18 05:29N 51°27' W 002°36'0 0.0
2017-May-18 04:59N 51°27' W 002°36'0 0.0
2017-May-18 04:29N 51°27' W 002°36'0 0.0
2017-May-18 03:59N 51°27' W 002°36'0 0.0
2017-May-18 03:29N 51°27' W 002°36'0 0.0
2017-May-18 02:59N 51°27' W 002°36'0 0.0
2017-May-18 02:29N 51°27' W 002°36'0 0.0
2017-May-18 01:59N 51°27' W 002°36'0 0.0
2017-May-18 01:29N 51°27' W 002°36'0 0.0
2017-May-18 00:59N 51°27' W 002°36'0 0.0
2017-May-18 00:23N 51°27' W 002°36'0 0.0
2017-May-17 23:59N 51°27' W 002°36'0 0.0
2017-May-17 23:29N 51°27' W 002°36'0 0.0
2017-May-17 22:59N 51°27' W 002°36'0 0.0
2017-May-17 22:29N 51°27' W 002°36'0 0.0
2017-May-17 21:59N 51°27' W 002°36'0 0.0
2017-May-17 21:29N 51°27' W 002°36'0 0.0
2017-May-17 20:53N 51°27' W 002°36'0 0.0
2017-May-17 20:26N 51°27' W 002°36'0 0.0
2017-May-17 19:59N 51°27' W 002°36'0 0.0
2017-May-17 19:26N 51°27' W 002°36'0 0.0
2017-May-17 18:56N 51°27' W 002°36'0 0.0
2017-May-17 18:23N 51°27' W 002°36'0 0.0
2017-May-17 17:59N 51°27' W 002°36'0 0.0
2017-May-17 17:29N 51°27' W 002°36'0 0.0
2017-May-17 16:56N 51°27' W 002°36'0 0.0
2017-May-17 16:29N 51°27' W 002°36'0 0.0
2017-May-17 15:50N 51°27' W 002°36'0 0.0
2017-May-17 15:26N 51°27' W 002°36'0 0.0
2017-May-17 14:56N 51°27' W 002°36'0 0.0
2017-May-17 13:53N 51°27' W 002°36'0 0.0
2017-May-17 13:29N 51°27' W 002°36'0 0.0
2017-May-17 12:59N 51°27' W 002°36'0 0.0
2017-May-17 12:29N 51°27' W 002°36'0 0.0
2017-May-17 11:59N 51°27' W 002°36'0 0.0
2017-May-17 11:29N 51°27' W 002°36'0 0.0
2017-May-17 10:50N 51°27' W 002°36'0 0.1
2017-May-17 10:27N 51°27' W 002°36'1 1.9
2017-May-17 10:00N 51°27' W 002°37'0 0.2
2017-May-17 09:14N 51°27' W 002°37'0 1.9
2017-May-17 09:00N 51°27' W 002°38'2 4.6
2017-May-17 08:31N 51°29' W 002°40'2 4.6
2017-May-17 08:00N 51°30' W 002°43'4 7.0
2017-May-17 07:30N 51°29' W 002°48'5 9.7
2017-May-17 06:58N 51°27' W 002°56'4 9.6
2017-May-17 06:30N 51°25' W 003°03'23 6.4
2017-May-17 02:59N 51°20' W 003°38'6 4.3
2017-May-17 01:29N 51°21' W 003°48'2 3.2
2017-May-17 00:52N 51°21' W 003°51'2 0.8
2017-May-16 22:21N 51°19' W 003°51'5 0.6
2017-May-16 15:08N 51°23' W 003°46'0 3.4
2017-May-16 14:59N 51°23' W 003°46'  

Dump ship's entire track history